createdAt,value
2017-11-26T00:01:02.409Z,79.40
2017-11-26T00:03:29.899Z,79.20
2017-11-26T00:05:58.283Z,79.40
2017-11-26T00:08:26.669Z,79.30
2017-11-26T00:10:54.166Z,79.30
2017-11-26T00:13:21.708Z,79.40
2017-11-26T00:15:49.370Z,79.40
2017-11-26T00:18:16.928Z,79.30
2017-11-26T00:20:44.438Z,79.50
2017-11-26T00:23:12.738Z,79.60
2017-11-26T00:25:41.032Z,79.50
2017-11-26T00:28:08.532Z,79.50
2017-11-26T00:30:36.028Z,79.30
2017-11-26T00:33:03.541Z,79.50
2017-11-26T00:35:31.038Z,79.70
2017-11-26T00:37:59.303Z,79.80
2017-11-26T00:40:26.822Z,79.80
2017-11-26T00:42:54.345Z,79.60
2017-11-26T00:45:21.837Z,79.90
2017-11-26T00:47:49.356Z,79.90
2017-11-26T00:50:17.626Z,80.00
2017-11-26T00:52:46.047Z,79.70
2017-11-26T00:55:13.558Z,79.70
2017-11-26T00:57:41.051Z,79.50
2017-11-26T01:00:09.446Z,79.40
2017-11-26T01:02:36.963Z,80.00
2017-11-26T01:05:05.239Z,79.70
2017-11-26T01:07:32.915Z,80.30
2017-11-26T01:10:00.463Z,79.70
2017-11-26T01:12:27.979Z,79.60
2017-11-26T01:14:55.488Z,79.70
2017-11-26T01:17:23.763Z,80.20
2017-11-26T01:22:32.067Z,80.10
2017-11-26T01:24:59.780Z,80.00
2017-11-26T01:27:27.274Z,80.40
2017-11-26T01:29:55.013Z,80.00
2017-11-26T01:32:22.521Z,80.00
2017-11-26T01:34:50.037Z,80.30
2017-11-26T01:37:17.519Z,80.10
2017-11-26T01:39:45.035Z,80.20
2017-11-26T01:42:12.550Z,80.30
2017-11-26T01:44:40.047Z,80.30
2017-11-26T01:47:07.594Z,80.40
2017-11-26T01:49:35.282Z,80.40
2017-11-26T01:52:02.957Z,80.30
2017-11-26T01:54:30.490Z,80.50
2017-11-26T01:56:58.175Z,80.20
2017-11-26T01:59:25.682Z,80.30
2017-11-26T02:01:53.291Z,80.50
2017-11-26T02:04:20.951Z,80.70
2017-11-26T02:06:48.479Z,80.80
2017-11-26T02:09:16.011Z,80.70
2017-11-26T02:11:43.537Z,80.60
2017-11-26T02:14:11.023Z,80.50
2017-11-26T02:16:38.557Z,80.40
2017-11-26T02:19:06.047Z,80.60
2017-11-26T02:21:33.715Z,80.30
2017-11-26T02:24:01.237Z,81.20
2017-11-26T02:26:28.747Z,80.30
2017-11-26T02:28:56.289Z,80.30
2017-11-26T02:31:35.483Z,80.10
2017-11-26T02:34:14.896Z,80.20
2017-11-26T02:36:42.741Z,80.10
2017-11-26T02:39:11.013Z,80.00
2017-11-26T02:41:40.034Z,79.80
2017-11-26T02:44:07.598Z,79.80
2017-11-26T02:46:35.104Z,79.80
2017-11-26T02:49:02.712Z,79.70
2017-11-26T02:51:30.999Z,80.00
2017-11-26T02:53:58.502Z,80.00
2017-11-26T02:56:26.117Z,79.90
2017-11-26T02:58:53.634Z,80.00
2017-11-26T03:01:21.429Z,80.10
2017-11-26T03:03:49.707Z,79.80
2017-11-26T03:06:17.502Z,79.70
2017-11-26T03:08:45.008Z,79.90
2017-11-26T03:11:12.503Z,80.00
2017-11-26T03:13:40.012Z,80.00
2017-11-26T03:16:07.556Z,80.20
2017-11-26T03:18:35.090Z,80.10
2017-11-26T03:21:02.621Z,80.50
2017-11-26T03:23:31.004Z,81.20
2017-11-26T03:25:59.261Z,81.10
2017-11-26T03:28:26.912Z,81.10
2017-11-26T03:30:54.402Z,80.90
2017-11-26T03:33:21.925Z,80.70
2017-11-26T03:35:49.442Z,80.70
2017-11-26T03:38:17.837Z,81.20
2017-11-26T03:40:45.350Z,81.10
2017-11-26T03:43:13.819Z,81.30
2017-11-26T03:45:41.422Z,81.10
2017-11-26T03:48:09.342Z,80.50
2017-11-26T03:50:37.025Z,80.60
2017-11-26T03:53:05.326Z,80.70
2017-11-26T03:55:32.830Z,80.60
2017-11-26T03:58:00.337Z,80.60
2017-11-26T04:00:27.991Z,80.90
2017-11-26T04:02:55.474Z,80.70
2017-11-26T04:05:23.117Z,80.70
2017-11-26T04:07:50.600Z,80.70
2017-11-26T04:10:18.097Z,80.90
2017-11-26T04:12:45.601Z,80.80
2017-11-26T04:15:13.119Z,80.90
2017-11-26T04:17:40.633Z,80.50
2017-11-26T04:20:08.148Z,80.10
2017-11-26T04:22:35.683Z,80.20
2017-11-26T04:25:03.190Z,80.10
2017-11-26T04:27:30.726Z,80.20
2017-11-26T04:29:58.218Z,80.30
2017-11-26T04:32:25.765Z,80.00
2017-11-26T04:34:53.337Z,79.80
2017-11-26T04:37:20.908Z,79.50
2017-11-26T04:39:48.866Z,79.40
2017-11-26T04:42:16.523Z,79.30
2017-11-26T04:44:45.261Z,79.40
2017-11-26T04:47:12.957Z,79.20
2017-11-26T04:49:40.461Z,79.00
2017-11-26T04:52:08.112Z,79.00
2017-11-26T04:54:35.591Z,78.90
2017-11-26T04:57:03.108Z,79.10
2017-11-26T04:59:30.600Z,79.00
2017-11-26T05:01:58.105Z,79.20
2017-11-26T05:04:25.615Z,79.40
2017-11-26T05:06:53.140Z,79.80
2017-11-26T05:09:21.418Z,80.00
2017-11-26T05:11:48.915Z,80.00
2017-11-26T05:14:16.722Z,79.70
2017-11-26T05:16:44.277Z,79.80
2017-11-26T05:19:11.764Z,80.00
2017-11-26T05:21:39.425Z,80.00
2017-11-26T05:24:07.007Z,79.80
2017-11-26T05:26:34.484Z,79.50
2017-11-26T05:29:02.049Z,79.50
2017-11-26T05:31:29.556Z,79.20
2017-11-26T05:33:57.245Z,79.10
2017-11-26T05:36:25.837Z,79.20
2017-11-26T05:38:53.539Z,78.70
2017-11-26T05:41:21.226Z,78.40
2017-11-26T05:43:49.502Z,77.80
2017-11-26T05:46:17.763Z,77.70
2017-11-26T05:48:45.299Z,77.70
2017-11-26T05:51:12.807Z,77.70
2017-11-26T05:53:40.788Z,78.10
2017-11-26T05:56:08.389Z,78.50
2017-11-26T05:58:35.881Z,78.30
2017-11-26T06:01:03.383Z,78.10
2017-11-26T06:03:30.919Z,79.20
2017-11-26T06:05:58.555Z,78.60
2017-11-26T06:08:26.024Z,78.40
2017-11-26T06:10:53.883Z,78.30
2017-11-26T06:13:21.611Z,78.60
2017-11-26T06:15:49.121Z,78.40
2017-11-26T06:18:17.374Z,78.40
2017-11-26T06:20:44.895Z,78.50
2017-11-26T06:23:12.416Z,78.70
2017-11-26T06:25:39.940Z,78.50
2017-11-26T06:28:07.461Z,78.40
2017-11-26T06:30:35.008Z,78.00
2017-11-26T06:33:02.497Z,77.90
2017-11-26T06:35:30.011Z,78.10
2017-11-26T06:37:57.533Z,78.10
2017-11-26T06:40:25.023Z,78.20
2017-11-26T06:42:52.551Z,78.00
2017-11-26T06:45:20.245Z,77.60
2017-11-26T06:47:47.909Z,77.20
2017-11-26T06:50:15.669Z,76.80
2017-11-26T06:52:43.925Z,76.40
2017-11-26T06:55:11.411Z,76.40
2017-11-26T06:57:39.682Z,76.20
2017-11-26T07:00:07.960Z,75.90
2017-11-26T07:02:35.671Z,75.80
2017-11-26T07:05:03.166Z,75.50
2017-11-26T07:07:30.675Z,75.00
2017-11-26T07:09:58.211Z,75.00
2017-11-26T07:12:25.710Z,75.30
2017-11-26T07:14:53.185Z,75.00
2017-11-26T07:17:20.710Z,75.00
2017-11-26T07:19:48.210Z,74.70
2017-11-26T07:22:15.726Z,74.30
2017-11-26T07:24:43.216Z,74.60
2017-11-26T07:27:10.700Z,74.70
2017-11-26T07:29:38.989Z,75.90
2017-11-26T07:32:06.521Z,75.80
2017-11-26T07:34:34.839Z,75.60
2017-11-26T07:37:02.323Z,75.60
2017-11-26T07:39:29.810Z,76.80
2017-11-26T07:41:57.305Z,75.80
2017-11-26T07:44:25.572Z,76.50
2017-11-26T07:46:53.822Z,75.90
2017-11-26T07:49:21.317Z,75.90
2017-11-26T07:51:48.866Z,75.70
2017-11-26T07:54:16.362Z,75.10
2017-11-26T07:56:43.879Z,74.70
2017-11-26T07:59:12.145Z,74.10
2017-11-26T08:01:39.742Z,74.40
2017-11-26T08:04:07.258Z,74.30
2017-11-26T08:06:34.743Z,74.10
2017-11-26T08:09:03.012Z,73.20
2017-11-26T08:11:31.289Z,73.10
2017-11-26T08:13:58.785Z,73.00
2017-11-26T08:16:26.302Z,73.10
2017-11-26T08:18:53.905Z,73.20
2017-11-26T08:21:21.411Z,73.30
2017-11-26T08:23:48.909Z,73.70
2017-11-26T08:26:16.414Z,74.10
2017-11-26T08:28:43.902Z,74.30
2017-11-26T08:31:11.413Z,74.10
2017-11-26T08:33:38.913Z,74.00
2017-11-26T08:36:06.409Z,74.00
2017-11-26T08:38:33.929Z,73.90
2017-11-26T08:41:01.426Z,74.20
2017-11-26T08:43:28.984Z,73.90
2017-11-26T08:45:56.490Z,74.20
2017-11-26T08:48:24.046Z,73.10
2017-11-26T08:50:51.546Z,72.10
2017-11-26T08:53:19.053Z,71.30
2017-11-26T08:55:46.557Z,70.60
2017-11-26T08:58:14.872Z,70.70
2017-11-26T09:00:42.416Z,70.70
2017-11-26T09:03:09.909Z,70.80
2017-11-26T09:05:37.491Z,70.70
2017-11-26T09:08:04.994Z,70.30
2017-11-26T09:10:32.500Z,70.40
2017-11-26T09:13:00.880Z,70.40
2017-11-26T09:15:28.394Z,70.30
2017-11-26T09:17:55.894Z,69.80
2017-11-26T09:20:23.392Z,70.40
2017-11-26T09:22:50.880Z,70.20
2017-11-26T09:25:18.807Z,70.10
2017-11-26T09:27:46.294Z,70.00
2017-11-26T09:30:14.006Z,70.00
2017-11-26T09:32:41.523Z,69.20
2017-11-26T09:35:09.019Z,69.50
2017-11-26T09:37:37.486Z,68.90
2017-11-26T09:40:05.125Z,68.80
2017-11-26T09:42:32.791Z,69.30
2017-11-26T09:45:00.312Z,69.40
2017-11-26T09:47:28.764Z,69.10
2017-11-26T09:49:56.373Z,69.00
2017-11-26T09:52:23.899Z,69.40
2017-11-26T09:54:51.419Z,69.00
2017-11-26T09:57:18.981Z,68.30
2017-11-26T09:59:46.630Z,67.80
2017-11-26T10:02:14.263Z,68.40
2017-11-26T10:04:41.767Z,68.00
2017-11-26T10:07:09.389Z,67.50
2017-11-26T10:09:37.053Z,67.80
2017-11-26T10:12:04.631Z,67.50
2017-11-26T10:14:32.435Z,68.00
2017-11-26T10:16:59.941Z,67.80
2017-11-26T10:19:27.447Z,67.70
2017-11-26T10:21:55.003Z,67.40
2017-11-26T10:24:22.514Z,67.50
2017-11-26T10:26:50.171Z,67.40
2017-11-26T10:29:18.495Z,66.60
2017-11-26T10:31:45.978Z,66.50
2017-11-26T10:34:13.499Z,66.20
2017-11-26T10:36:41.061Z,66.10
2017-11-26T10:39:08.690Z,66.00
2017-11-26T10:41:36.176Z,66.30
2017-11-26T10:44:03.816Z,66.00
2017-11-26T10:46:31.314Z,65.80
2017-11-26T10:48:58.931Z,65.80
2017-11-26T10:51:27.181Z,65.50
2017-11-26T10:53:54.682Z,65.50
2017-11-26T10:56:22.187Z,65.60
2017-11-26T10:58:49.679Z,65.10
2017-11-26T11:01:17.194Z,64.00
2017-11-26T11:03:44.697Z,63.30
2017-11-26T11:06:12.203Z,63.40
2017-11-26T11:08:39.782Z,63.60
2017-11-26T11:11:07.482Z,62.70
2017-11-26T11:13:34.978Z,62.80
2017-11-26T11:16:02.611Z,62.60
2017-11-26T11:18:30.118Z,62.40
2017-11-26T11:20:57.747Z,62.50
2017-11-26T11:23:25.237Z,62.70
2017-11-26T11:25:52.721Z,61.70
2017-11-26T11:28:20.985Z,62.00
2017-11-26T11:30:48.484Z,61.90
2017-11-26T11:33:16.979Z,62.30
2017-11-26T11:35:44.594Z,62.30
2017-11-26T11:38:12.101Z,62.80
2017-11-26T11:40:39.645Z,62.80
2017-11-26T11:43:07.252Z,62.40
2017-11-26T11:45:35.102Z,62.90
2017-11-26T11:48:02.594Z,62.80
2017-11-26T11:50:30.071Z,62.70
2017-11-26T11:52:58.461Z,62.80
2017-11-26T11:55:25.957Z,62.80
2017-11-26T11:57:53.454Z,63.00
2017-11-26T12:00:20.960Z,62.70
2017-11-26T12:02:48.457Z,61.90
2017-11-26T12:05:15.940Z,61.90
2017-11-26T12:07:45.229Z,61.60
2017-11-26T12:10:12.719Z,61.50
2017-11-26T12:12:40.987Z,61.10
2017-11-26T12:15:09.351Z,61.50
2017-11-26T12:17:36.836Z,61.50
2017-11-26T12:20:04.335Z,61.10
2017-11-26T12:22:31.831Z,61.50
2017-11-26T12:24:59.510Z,62.10
2017-11-26T12:27:27.775Z,61.90
2017-11-26T12:29:56.095Z,62.20
2017-11-26T12:32:23.763Z,62.10
2017-11-26T12:34:51.281Z,62.30
2017-11-26T12:37:18.786Z,61.90
2017-11-26T12:39:46.298Z,61.70
2017-11-26T12:42:13.847Z,62.30
2017-11-26T12:44:41.323Z,62.60
2017-11-26T12:47:09.561Z,62.50
2017-11-26T12:49:37.399Z,62.50
2017-11-26T12:52:04.875Z,62.80
2017-11-26T12:54:32.588Z,62.70
2017-11-26T12:57:00.078Z,62.60
2017-11-26T12:59:27.562Z,62.50
2017-11-26T13:01:55.052Z,62.50
2017-11-26T13:04:23.325Z,63.40
2017-11-26T13:06:50.834Z,63.40
2017-11-26T13:09:18.310Z,63.50
2017-11-26T13:11:45.833Z,64.10
2017-11-26T13:14:13.330Z,63.80
2017-11-26T13:16:41.035Z,63.80
2017-11-26T13:19:08.543Z,64.10
2017-11-26T13:21:36.150Z,64.10
2017-11-26T13:24:03.841Z,63.70
2017-11-26T13:26:31.347Z,63.70
2017-11-26T13:28:58.855Z,63.80
2017-11-26T13:31:26.352Z,63.80
2017-11-26T13:33:53.878Z,64.10
2017-11-26T13:36:21.433Z,64.50
2017-11-26T13:38:48.923Z,63.70
2017-11-26T13:41:16.434Z,63.50
2017-11-26T13:43:44.087Z,63.50
2017-11-26T13:46:11.787Z,64.30
2017-11-26T13:48:39.421Z,64.00
2017-11-26T13:51:06.908Z,64.40
2017-11-26T13:53:34.434Z,64.60
2017-11-26T13:56:01.951Z,64.20
2017-11-26T13:58:29.420Z,64.30
2017-11-26T14:00:56.936Z,63.90
2017-11-26T14:03:24.410Z,63.80
2017-11-26T14:05:51.895Z,64.30
2017-11-26T14:08:19.395Z,64.40
2017-11-26T14:10:47.650Z,65.00
2017-11-26T14:13:16.069Z,64.60
2017-11-26T14:15:43.539Z,64.50
2017-11-26T14:18:11.035Z,64.70
2017-11-26T14:20:38.544Z,65.20
2017-11-26T14:23:06.051Z,65.30
2017-11-26T14:25:33.733Z,65.70
2017-11-26T14:28:01.218Z,65.50
2017-11-26T14:30:28.822Z,65.70
2017-11-26T14:32:56.316Z,65.50
2017-11-26T14:35:24.589Z,66.10
2017-11-26T14:37:52.168Z,66.00
2017-11-26T14:40:19.689Z,66.10
2017-11-26T14:42:47.185Z,66.50
2017-11-26T14:45:14.671Z,66.50
2017-11-26T14:47:42.167Z,66.40
2017-11-26T14:50:09.697Z,66.80
2017-11-26T14:52:37.182Z,66.70
2017-11-26T14:55:04.692Z,66.60
2017-11-26T14:57:32.241Z,66.70
2017-11-26T14:59:59.774Z,66.60
2017-11-26T15:02:27.272Z,67.50
2017-11-26T15:04:54.777Z,67.70
2017-11-26T15:07:22.331Z,68.80
2017-11-26T15:09:49.810Z,67.50
2017-11-26T15:12:17.331Z,67.70
2017-11-26T15:14:44.873Z,67.80
2017-11-26T15:17:12.371Z,67.60
2017-11-26T15:19:40.655Z,67.70
2017-11-26T15:22:08.509Z,67.80
2017-11-26T15:24:36.124Z,67.30
2017-11-26T15:27:03.653Z,67.90
2017-11-26T15:29:32.051Z,68.40
2017-11-26T15:31:59.711Z,68.40
2017-11-26T15:34:27.214Z,68.00
2017-11-26T15:36:54.727Z,67.80
2017-11-26T15:39:22.227Z,67.70
2017-11-26T15:41:49.707Z,68.80
2017-11-26T15:44:17.210Z,68.90
2017-11-26T15:46:44.724Z,69.20
2017-11-26T15:49:12.242Z,69.90
2017-11-26T15:51:39.818Z,70.90
2017-11-26T15:54:07.305Z,71.30
2017-11-26T15:56:34.816Z,71.80
2017-11-26T15:59:02.327Z,72.10
2017-11-26T16:01:29.955Z,72.90
2017-11-26T16:03:57.459Z,72.20
2017-11-26T16:06:25.723Z,72.70
2017-11-26T16:08:53.476Z,72.60
2017-11-26T16:11:20.966Z,72.00
2017-11-26T16:13:48.445Z,72.20
2017-11-26T16:16:15.967Z,72.30
2017-11-26T16:18:43.478Z,72.70
2017-11-26T16:21:11.102Z,73.30
2017-11-26T16:23:38.618Z,74.40
2017-11-26T16:26:06.098Z,73.90
2017-11-26T16:28:33.695Z,73.70
2017-11-26T16:31:01.206Z,74.10
2017-11-26T16:33:28.722Z,73.60
2017-11-26T16:35:56.549Z,73.60
2017-11-26T16:38:24.053Z,73.50
2017-11-26T16:40:51.566Z,74.10
2017-11-26T16:43:19.212Z,74.30
2017-11-26T16:45:46.697Z,74.80
2017-11-26T16:48:14.361Z,74.50
2017-11-26T16:50:41.938Z,74.70
2017-11-26T16:53:09.585Z,74.80
2017-11-26T16:55:37.088Z,74.30
2017-11-26T16:58:04.571Z,74.30
2017-11-26T17:00:32.094Z,74.80
2017-11-26T17:02:59.866Z,75.00
2017-11-26T17:05:27.361Z,75.50
2017-11-26T17:07:54.890Z,74.80
2017-11-26T17:10:23.214Z,75.50
2017-11-26T17:12:50.844Z,76.00
2017-11-26T17:15:18.357Z,76.50
2017-11-26T17:17:46.632Z,78.00
2017-11-26T17:20:14.882Z,77.00
2017-11-26T17:22:42.400Z,77.00
2017-11-26T17:25:09.960Z,77.60
2017-11-26T17:27:37.462Z,77.40
2017-11-26T17:30:04.982Z,77.60
2017-11-26T17:32:32.636Z,77.30
2017-11-26T17:35:00.135Z,77.70
2017-11-26T17:37:27.631Z,77.30
2017-11-26T17:39:55.165Z,76.60
2017-11-26T17:42:22.663Z,76.50
2017-11-26T17:44:50.357Z,76.80
2017-11-26T17:47:17.881Z,77.10
2017-11-26T17:49:45.530Z,77.70
2017-11-26T17:52:13.035Z,76.70
2017-11-26T17:54:40.692Z,76.30
2017-11-26T17:57:08.217Z,76.40
2017-11-26T17:59:35.717Z,76.60
2017-11-26T18:02:03.251Z,76.60
2017-11-26T18:04:30.748Z,77.00
2017-11-26T18:06:58.254Z,76.40
2017-11-26T18:09:25.765Z,76.60
2017-11-26T18:11:53.259Z,76.60
2017-11-26T18:14:20.775Z,76.20
2017-11-26T18:16:48.276Z,76.00
2017-11-26T18:19:16.609Z,75.80
2017-11-26T18:21:44.154Z,75.80
2017-11-26T18:24:11.800Z,75.60
2017-11-26T18:26:39.491Z,75.90
2017-11-26T18:29:07.018Z,75.70
2017-11-26T18:31:34.791Z,75.90
2017-11-26T18:34:02.309Z,75.80
2017-11-26T18:36:29.885Z,75.80
2017-11-26T18:38:58.292Z,75.70
2017-11-26T18:41:26.080Z,75.70
2017-11-26T18:43:53.576Z,75.50
2017-11-26T18:46:21.170Z,75.50
2017-11-26T18:48:48.839Z,75.60
2017-11-26T18:51:16.404Z,75.40
2017-11-26T18:53:43.907Z,75.20
2017-11-26T18:56:12.338Z,75.30
2017-11-26T18:58:39.858Z,75.30
2017-11-26T19:01:07.371Z,75.20
2017-11-26T19:03:34.879Z,75.00
2017-11-26T19:06:03.272Z,74.50
2017-11-26T19:08:30.828Z,74.40
2017-11-26T19:10:58.354Z,75.00
2017-11-26T19:13:25.981Z,74.20
2017-11-26T19:15:53.856Z,74.30
2017-11-26T19:18:21.338Z,74.60
2017-11-26T19:20:49.720Z,74.60
2017-11-26T19:23:17.235Z,74.70
2017-11-26T19:25:44.751Z,74.40
2017-11-26T19:28:12.264Z,74.40
2017-11-26T19:30:39.765Z,74.40
2017-11-26T19:33:07.320Z,74.10
2017-11-26T19:35:36.346Z,74.80
2017-11-26T19:38:05.485Z,74.50
2017-11-26T19:40:33.059Z,74.50
2017-11-26T19:43:01.434Z,74.50
2017-11-26T19:45:37.230Z,74.70
2017-11-26T19:53:45.556Z,74.60
2017-11-26T19:56:13.370Z,74.80
2017-11-26T19:58:41.362Z,74.40
2017-11-26T20:01:08.988Z,74.50
2017-11-26T20:03:36.500Z,74.60
2017-11-26T20:06:04.096Z,74.30
2017-11-26T20:08:32.371Z,74.10
2017-11-26T20:11:00.708Z,74.00
2017-11-26T20:13:28.216Z,74.00
2017-11-26T20:15:55.721Z,74.10
2017-11-26T20:18:23.222Z,74.20
2017-11-26T20:20:55.118Z,74.00
2017-11-26T20:23:23.007Z,73.90
2017-11-26T20:25:50.579Z,74.10
2017-11-26T20:28:18.134Z,74.30
2017-11-26T20:30:45.751Z,74.10
2017-11-26T20:33:14.127Z,73.60
2017-11-26T20:35:42.411Z,74.00
2017-11-26T20:38:09.909Z,73.90
2017-11-26T20:40:37.410Z,73.40
2017-11-26T20:43:05.700Z,73.40
2017-11-26T20:45:33.278Z,73.40
2017-11-26T20:48:00.784Z,73.70
2017-11-26T20:50:28.308Z,73.90
2017-11-26T20:52:55.794Z,74.50
2017-11-26T20:55:23.277Z,73.70
2017-11-26T20:57:50.779Z,73.70
2017-11-26T21:00:18.296Z,74.30
2017-11-26T21:02:45.798Z,74.50
2017-11-26T21:05:13.293Z,75.00
2017-11-26T21:07:40.783Z,75.00
2017-11-26T21:10:08.335Z,75.10
2017-11-26T21:12:36.745Z,74.10
2017-11-26T21:15:04.416Z,74.10
2017-11-26T21:17:31.911Z,74.60
2017-11-26T21:19:59.414Z,74.60
2017-11-26T21:22:26.970Z,75.00
2017-11-26T21:24:54.655Z,75.30
2017-11-26T21:27:22.205Z,76.00
2017-11-26T21:29:49.690Z,75.30
2017-11-26T21:32:17.188Z,75.50
2017-11-26T21:34:44.772Z,75.60
2017-11-26T21:37:13.033Z,75.20
2017-11-26T21:39:41.441Z,75.50
2017-11-26T21:42:08.920Z,75.40
2017-11-26T21:44:36.405Z,75.30
2017-11-26T21:47:04.136Z,75.30
2017-11-26T21:49:31.644Z,75.30
2017-11-26T21:52:00.023Z,74.90
2017-11-26T21:54:27.685Z,74.90
2017-11-26T21:56:55.182Z,74.90
2017-11-26T21:59:22.673Z,75.00
2017-11-26T22:01:50.145Z,75.00
2017-11-26T22:04:17.659Z,74.70
2017-11-26T22:06:45.227Z,75.40
2017-11-26T22:09:12.737Z,75.20
2017-11-26T22:11:40.308Z,74.70
2017-11-26T22:14:07.795Z,75.10
2017-11-26T22:16:35.414Z,74.50
2017-11-26T22:19:02.916Z,74.60
2017-11-26T22:21:30.415Z,74.50
2017-11-26T22:23:57.940Z,74.10
2017-11-26T22:26:25.430Z,74.50
2017-11-26T22:28:52.972Z,73.90
2017-11-26T22:31:20.458Z,73.70
2017-11-26T22:33:47.931Z,73.40
2017-11-26T22:36:15.462Z,73.40
2017-11-26T22:38:42.984Z,73.10
2017-11-26T22:41:10.524Z,73.10
2017-11-26T22:43:38.030Z,73.40
2017-11-26T22:46:05.535Z,73.20
2017-11-26T22:48:33.800Z,73.00
2017-11-26T22:51:01.288Z,73.00
2017-11-26T22:53:29.138Z,72.60
2017-11-26T22:55:56.641Z,72.40
2017-11-26T22:58:24.137Z,72.50
2017-11-26T23:00:51.637Z,72.80
2017-11-26T23:03:19.122Z,72.60
2017-11-26T23:05:46.622Z,72.20
2017-11-26T23:08:14.216Z,72.40
2017-11-26T23:10:41.869Z,72.40
2017-11-26T23:13:09.370Z,72.00
2017-11-26T23:15:36.839Z,72.40
2017-11-26T23:18:04.342Z,71.60
2017-11-26T23:20:31.847Z,71.90
2017-11-26T23:22:59.337Z,72.00
2017-11-26T23:25:27.232Z,71.70
2017-11-26T23:27:55.475Z,72.20
2017-11-26T23:30:22.948Z,72.30
2017-11-26T23:32:50.446Z,72.50
2017-11-26T23:35:17.925Z,72.70
2017-11-26T23:37:45.418Z,73.10
2017-11-26T23:40:13.682Z,73.70
2017-11-26T23:42:41.186Z,73.70
2017-11-26T23:45:08.683Z,73.70
2017-11-26T23:47:36.182Z,72.90
2017-11-26T23:50:04.494Z,72.60
2017-11-26T23:52:31.954Z,72.60
2017-11-26T23:54:59.553Z,72.60
2017-11-26T23:57:28.542Z,72.10
2017-11-26T23:59:56.853Z,72.40
